Time;durP1;ratioP1;P1;durP2;ratioP2;P2;SDS_P1;SDS_P2;PMS_P1;PMS_P2;Temp;Humidity;BMP_temperature;BMP_pressure;BME280_temperature;BME280_humidity;BME280_pressure;Samples;Min_cycle;Max_cycle;Signal;HPM_P1;HPM_P2
2021/10/16 00:02:06;;;;;;;64.78;27.98;;;;;;;;;;4943145;28;20482;-57
2021/10/16 00:04:32;;;;;;;150.05;22.38;;;;;;;;;;4946649;28;20374;-57
2021/10/16 00:06:57;;;;;;;139.13;23.33;;;;;;;;;;4945996;28;20031;-57
2021/10/16 00:09:22;;;;;;;110.60;27.35;;;;;;;;;;4942557;28;20035;-57
2021/10/16 00:11:47;;;;;;;62.40;23.20;;;;;;;;;;4938226;28;20040;-56
2021/10/16 00:14:13;;;;;;;93.18;23.27;;;;;;;;;;4935281;29;20031;-57
2021/10/16 00:16:38;;;;;;;208.90;23.25;;;;;;;;;;4946090;28;20048;-57
2021/10/16 00:19:05;;;;;;;180.27;22.08;;;;;;;;;;4942166;28;20027;-57
2021/10/16 00:21:30;;;;;;;142.30;20.85;;;;;;;;;;4942737;28;20046;-57
2021/10/16 00:23:55;;;;;;;194.07;19.42;;;;;;;;;;4941616;28;20031;-57
2021/10/16 00:26:20;;;;;;;185.50;21.02;;;;;;;;;;4930729;28;20390;-57
2021/10/16 00:28:46;;;;;;;127.45;19.10;;;;;;;;;;4944331;29;20031;-58
2021/10/16 00:31:11;;;;;;;76.63;21.35;;;;;;;;;;4941381;28;20062;-57
2021/10/16 00:33:36;;;;;;;287.50;23.67;;;;;;;;;;4945244;28;20114;-57
2021/10/16 00:36:02;;;;;;;177.30;22.17;;;;;;;;;;4944023;28;20043;-57
2021/10/16 00:38:27;;;;;;;76.00;17.23;;;;;;;;;;4943345;28;20490;-57
2021/10/16 00:40:52;;;;;;;110.20;15.00;;;;;;;;;;4933751;28;20126;-57
2021/10/16 00:43:17;;;;;;;141.48;18.88;;;;;;;;;;4944044;28;20042;-57
2021/10/16 00:45:42;;;;;;;103.20;19.63;;;;;;;;;;4946360;28;20053;-57
2021/10/16 00:48:08;;;;;;;91.45;19.65;;;;;;;;;;4946178;28;20509;-57
2021/10/16 00:50:33;;;;;;;98.13;19.85;;;;;;;;;;4942296;28;20047;-57
2021/10/16 00:52:58;;;;;;;106.57;18.52;;;;;;;;;;4941198;29;20031;-57
2021/10/16 00:55:23;;;;;;;125.93;15.23;;;;;;;;;;4939308;28;20050;-58
2021/10/16 00:57:49;;;;;;;72.47;13.43;;;;;;;;;;4940174;28;20790;-57
2021/10/16 01:00:14;;;;;;;100.32;10.43;;;;;;;;;;4940032;28;20240;-56
2021/10/16 01:02:40;;;;;;;89.93;10.35;;;;;;;;;;4940033;28;20067;-57
2021/10/16 01:05:05;;;;;;;158.30;11.70;;;;;;;;;;4942408;28;20516;-57
2021/10/16 01:07:31;;;;;;;119.20;11.52;;;;;;;;;;4949229;28;20035;-57
2021/10/16 01:09:56;;;;;;;92.88;10.98;;;;;;;;;;4944024;28;20031;-57
2021/10/16 01:12:21;;;;;;;56.85;10.63;;;;;;;;;;4967529;28;20585;-57
2021/10/16 01:14:49;;;;;;;83.43;10.25;;;;;;;;;;4943137;28;20034;-57
2021/10/16 01:17:17;;;;;;;114.25;11.27;;;;;;;;;;4948705;28;20039;-56
2021/10/16 01:19:42;;;;;;;64.53;8.80;;;;;;;;;;4944692;28;20854;-56
2021/10/16 01:22:07;;;;;;;94.07;9.93;;;;;;;;;;4947915;28;20078;-56
2021/10/16 01:24:33;;;;;;;64.93;9.48;;;;;;;;;;4936588;29;20444;-56
2021/10/16 01:26:58;;;;;;;56.50;9.90;;;;;;;;;;4949082;28;20073;-57
2021/10/16 01:29:24;;;;;;;64.07;9.50;;;;;;;;;;4947903;28;20023;-57
2021/10/16 01:31:50;;;;;;;68.80;10.07;;;;;;;;;;4942688;28;20051;-56
2021/10/16 01:34:15;;;;;;;110.15;11.07;;;;;;;;;;4948491;28;20051;-56
2021/10/16 01:36:47;;;;;;;105.55;12.00;;;;;;;;;;4941785;28;20126;-57
2021/10/16 01:39:12;;;;;;;118.22;10.77;;;;;;;;;;4939773;28;20030;-57
2021/10/16 01:41:38;;;;;;;100.22;10.27;;;;;;;;;;4948986;28;20043;-56
2021/10/16 01:44:06;;;;;;;97.82;10.27;;;;;;;;;;4949147;28;20528;-59
2021/10/16 01:46:31;;;;;;;97.82;10.38;;;;;;;;;;4944737;28;20077;-59
2021/10/16 01:48:56;;;;;;;100.53;10.55;;;;;;;;;;4941585;28;20024;-57
2021/10/16 01:51:22;;;;;;;143.80;11.27;;;;;;;;;;4947039;28;20043;-56
2021/10/16 01:53:47;;;;;;;115.25;9.63;;;;;;;;;;4949075;28;20023;-56
2021/10/16 01:56:12;;;;;;;70.13;9.85;;;;;;;;;;4948351;28;20047;-56
2021/10/16 01:58:37;;;;;;;66.50;8.05;;;;;;;;;;4944772;28;20109;-56
2021/10/16 02:01:02;;;;;;;128.18;11.55;;;;;;;;;;4949066;28;20166;-57
2021/10/16 02:03:28;;;;;;;72.80;9.27;;;;;;;;;;4939010;28;20027;-56
2021/10/16 02:05:53;;;;;;;71.78;8.10;;;;;;;;;;4945582;28;20039;-56
2021/10/16 02:08:18;;;;;;;151.32;9.68;;;;;;;;;;4948283;28;20082;-56
2021/10/16 02:10:43;;;;;;;56.90;8.90;;;;;;;;;;4945572;28;20114;-56
2021/10/16 02:13:09;;;;;;;20.02;7.43;;;;;;;;;;4942946;28;20058;-57
2021/10/16 02:15:34;;;;;;;84.10;8.88;;;;;;;;;;4937934;28;20042;-57
2021/10/16 02:17:59;;;;;;;89.60;8.93;;;;;;;;;;4948254;28;20068;-57
2021/10/16 02:20:24;;;;;;;78.40;8.82;;;;;;;;;;4943687;28;20047;-57
2021/10/16 02:22:50;;;;;;;27.27;7.47;;;;;;;;;;4949159;28;20042;-57
2021/10/16 02:25:15;;;;;;;52.45;7.60;;;;;;;;;;4943750;28;20035;-57
2021/10/16 02:27:40;;;;;;;36.95;8.32;;;;;;;;;;4957831;28;20481;-57
2021/10/16 02:30:05;;;;;;;32.08;9.63;;;;;;;;;;4944619;28;20027;-59
2021/10/16 02:32:31;;;;;;;26.15;8.10;;;;;;;;;;4948375;28;20046;-58
2021/10/16 02:34:56;;;;;;;75.25;9.80;;;;;;;;;;4942383;29;20039;-57
2021/10/16 02:37:21;;;;;;;85.07;10.07;;;;;;;;;;4944078;28;20050;-57
2021/10/16 02:39:46;;;;;;;26.55;9.75;;;;;;;;;;4945553;29;20382;-57
2021/10/16 02:42:12;;;;;;;31.88;10.25;;;;;;;;;;4946971;28;20125;-57
2021/10/16 02:44:37;;;;;;;32.60;11.05;;;;;;;;;;4949492;28;20042;-57
2021/10/16 02:47:02;;;;;;;32.35;10.75;;;;;;;;;;4944787;28;20073;-58
2021/10/16 02:49:27;;;;;;;32.92;10.55;;;;;;;;;;4948576;28;20390;-57
2021/10/16 02:51:53;;;;;;;76.53;11.65;;;;;;;;;;4942266;28;20164;-57
2021/10/16 02:54:18;;;;;;;62.30;11.48;;;;;;;;;;4948870;28;20169;-57
2021/10/16 02:56:43;;;;;;;152.48;12.32;;;;;;;;;;4940257;28;20680;-57
2021/10/16 02:59:08;;;;;;;230.57;13.00;;;;;;;;;;4944316;28;20034;-57
2021/10/16 03:01:34;;;;;;;97.25;11.95;;;;;;;;;;4947979;28;20097;-57
2021/10/16 03:03:59;;;;;;;86.88;11.85;;;;;;;;;;4948098;28;20027;-58
2021/10/16 03:06:24;;;;;;;36.40;10.95;;;;;;;;;;4938439;28;20054;-57
2021/10/16 03:08:50;;;;;;;32.45;10.25;;;;;;;;;;4941569;28;20461;-57
2021/10/16 03:11:15;;;;;;;25.88;8.45;;;;;;;;;;4943301;28;20134;-57
2021/10/16 03:13:40;;;;;;;29.27;8.73;;;;;;;;;;4960110;28;20425;-57
2021/10/16 03:16:05;;;;;;;27.45;8.35;;;;;;;;;;4948027;28;20040;-57
2021/10/16 03:18:30;;;;;;;30.60;8.02;;;;;;;;;;4941334;29;20725;-57
2021/10/16 03:20:56;;;;;;;37.30;7.88;;;;;;;;;;4946829;28;20047;-57
2021/10/16 03:23:21;;;;;;;25.45;7.63;;;;;;;;;;4946490;28;20030;-57
2021/10/16 03:25:46;;;;;;;36.35;8.57;;;;;;;;;;4944106;28;20602;-57
2021/10/16 03:28:11;;;;;;;19.30;8.00;;;;;;;;;;4944052;29;20754;-58
2021/10/16 03:30:37;;;;;;;46.10;8.10;;;;;;;;;;4936217;28;20131;-57
2021/10/16 03:33:03;;;;;;;20.60;7.72;;;;;;;;;;4937087;28;20035;-57
2021/10/16 03:35:28;;;;;;;15.60;7.75;;;;;;;;;;4944200;28;20129;-57
2021/10/16 03:37:53;;;;;;;25.20;7.88;;;;;;;;;;4941928;28;20047;-57
2021/10/16 03:40:19;;;;;;;21.67;8.95;;;;;;;;;;4942413;28;20622;-57
2021/10/16 03:42:44;;;;;;;16.70;7.95;;;;;;;;;;4941591;28;20118;-57
2021/10/16 03:45:09;;;;;;;16.75;7.75;;;;;;;;;;4944753;28;20027;-57
2021/10/16 03:47:34;;;;;;;18.38;7.70;;;;;;;;;;4947297;28;20480;-57
2021/10/16 03:50:00;;;;;;;19.38;7.47;;;;;;;;;;4945656;29;20090;-57
2021/10/16 03:52:25;;;;;;;12.93;7.65;;;;;;;;;;4959586;28;20050;-57
2021/10/16 03:54:50;;;;;;;12.40;6.20;;;;;;;;;;4947527;28;20081;-57
2021/10/16 03:57:15;;;;;;;17.48;7.85;;;;;;;;;;4944990;28;20593;-58
2021/10/16 03:59:43;;;;;;;17.73;7.75;;;;;;;;;;4947276;28;20291;-57
2021/10/16 04:02:08;;;;;;;22.08;7.68;;;;;;;;;;4937611;28;20532;-57
2021/10/16 04:04:33;;;;;;;19.08;7.70;;;;;;;;;;4934559;29;20031;-57
2021/10/16 04:06:58;;;;;;;16.27;6.70;;;;;;;;;;4943740;28;20077;-57
2021/10/16 04:09:24;;;;;;;15.48;7.13;;;;;;;;;;4938063;28;20027;-57
2021/10/16 04:11:49;;;;;;;12.20;6.55;;;;;;;;;;4946795;28;20114;-58
2021/10/16 04:14:14;;;;;;;10.52;6.68;;;;;;;;;;4943999;28;20512;-57
2021/10/16 04:16:39;;;;;;;13.45;6.53;;;;;;;;;;4938689;28;20059;-57
2021/10/16 04:19:05;;;;;;;15.70;6.47;;;;;;;;;;4935996;28;20066;-57
2021/10/16 04:21:31;;;;;;;25.90;6.40;;;;;;;;;;4940099;28;20055;-58
2021/10/16 04:23:56;;;;;;;23.40;6.40;;;;;;;;;;4942167;28;20074;-58
2021/10/16 04:26:21;;;;;;;27.80;6.70;;;;;;;;;;4957959;28;20042;-58
2021/10/16 04:28:47;;;;;;;18.58;6.50;;;;;;;;;;4940070;28;20051;-58
2021/10/16 04:31:12;;;;;;;38.30;7.70;;;;;;;;;;4944707;28;20039;-58
2021/10/16 04:33:37;;;;;;;21.90;6.30;;;;;;;;;;4942803;28;20027;-58
2021/10/16 04:36:03;;;;;;;28.58;5.65;;;;;;;;;;4945861;28;20669;-58
2021/10/16 04:38:28;;;;;;;35.42;6.18;;;;;;;;;;4946594;28;20027;-58
2021/10/16 04:40:53;;;;;;;38.88;6.05;;;;;;;;;;4941834;28;20130;-58
2021/10/16 04:43:19;;;;;;;23.35;6.53;;;;;;;;;;4935319;28;20138;-58
2021/10/16 04:45:45;;;;;;;50.10;6.05;;;;;;;;;;4940608;28;20438;-58
2021/10/16 04:48:10;;;;;;;40.42;5.97;;;;;;;;;;4945274;28;20074;-58
2021/10/16 04:50:35;;;;;;;26.90;5.43;;;;;;;;;;4934058;28;20035;-58
2021/10/16 04:53:01;;;;;;;21.80;5.70;;;;;;;;;;4941488;28;20082;-58
2021/10/16 04:55:26;;;;;;;37.65;6.35;;;;;;;;;;4939703;28;20062;-58
2021/10/16 04:57:51;;;;;;;16.92;5.60;;;;;;;;;;4941387;28;20035;-58
2021/10/16 05:00:16;;;;;;;22.10;5.78;;;;;;;;;;4945835;28;20055;-58
2021/10/16 05:02:42;;;;;;;36.15;5.80;;;;;;;;;;4945297;28;20054;-57
2021/10/16 05:05:07;;;;;;;34.85;6.57;;;;;;;;;;4942795;28;20053;-57
2021/10/16 05:07:32;;;;;;;46.92;6.00;;;;;;;;;;4944283;29;20027;-58
2021/10/16 05:09:57;;;;;;;27.83;5.40;;;;;;;;;;4942141;28;20062;-58
2021/10/16 05:12:23;;;;;;;24.38;6.10;;;;;;;;;;4941345;28;20052;-58
2021/10/16 05:14:48;;;;;;;37.25;5.43;;;;;;;;;;4941921;28;20038;-58
2021/10/16 05:17:13;;;;;;;37.28;5.60;;;;;;;;;;4942982;28;20055;-58
2021/10/16 05:19:38;;;;;;;16.23;5.10;;;;;;;;;;4941434;29;20028;-58
2021/10/16 05:22:04;;;;;;;26.67;5.68;;;;;;;;;;4946299;28;20039;-58
2021/10/16 05:24:29;;;;;;;38.75;5.63;;;;;;;;;;4946239;28;20087;-58
2021/10/16 05:26:54;;;;;;;35.53;5.55;;;;;;;;;;4945155;28;20039;-58
2021/10/16 05:29:21;;;;;;;29.30;5.38;;;;;;;;;;4937224;28;20706;-57
2021/10/16 05:31:46;;;;;;;17.52;4.75;;;;;;;;;;4935830;28;20194;-58
2021/10/16 05:34:12;;;;;;;23.23;5.80;;;;;;;;;;4940900;28;20102;-58
2021/10/16 05:36:37;;;;;;;21.25;5.75;;;;;;;;;;4938224;28;20054;-58
2021/10/16 05:39:03;;;;;;;39.85;11.60;;;;;;;;;;4940980;28;20027;-58
2021/10/16 05:41:28;;;;;;;33.50;11.20;;;;;;;;;;4941772;28;20591;-58
2021/10/16 05:43:53;;;;;;;25.60;5.75;;;;;;;;;;4940150;28;20020;-58
2021/10/16 05:46:18;;;;;;;19.42;5.05;;;;;;;;;;4945361;28;20035;-58
2021/10/16 05:48:44;;;;;;;36.47;6.22;;;;;;;;;;4945262;28;20023;-58
2021/10/16 05:51:11;;;;;;;38.92;5.30;;;;;;;;;;4944667;28;20054;-58
2021/10/16 05:53:36;;;;;;;40.65;11.57;;;;;;;;;;4943209;28;20027;-58
2021/10/16 05:56:01;;;;;;;55.92;9.00;;;;;;;;;;4945460;28;20564;-58
2021/10/16 05:58:26;;;;;;;22.30;7.40;;;;;;;;;;4949207;28;20074;-58
2021/10/16 06:00:52;;;;;;;49.38;7.55;;;;;;;;;;4939516;28;20421;-57
2021/10/16 06:03:17;;;;;;;37.20;7.60;;;;;;;;;;4941866;28;20035;-58
2021/10/16 06:05:42;;;;;;;17.60;5.07;;;;;;;;;;4947778;28;20837;-58
2021/10/16 06:08:08;;;;;;;25.63;5.32;;;;;;;;;;4949211;28;20230;-58
2021/10/16 06:10:33;;;;;;;33.53;6.47;;;;;;;;;;4944153;28;20171;-58
2021/10/16 06:12:58;;;;;;;21.60;6.13;;;;;;;;;;4943824;28;20183;-58
2021/10/16 06:15:23;;;;;;;25.75;6.30;;;;;;;;;;4948002;28;20035;-58
2021/10/16 06:17:49;;;;;;;42.60;6.20;;;;;;;;;;4948957;28;20043;-58
2021/10/16 06:20:14;;;;;;;32.08;6.15;;;;;;;;;;4947525;28;20067;-58
2021/10/16 06:22:39;;;;;;;39.45;5.20;;;;;;;;;;4944955;29;20031;-58
2021/10/16 06:25:05;;;;;;;33.67;5.78;;;;;;;;;;4947933;28;20031;-58
2021/10/16 06:27:30;;;;;;;48.08;6.10;;;;;;;;;;4946643;28;20457;-58
2021/10/16 06:29:55;;;;;;;34.00;5.95;;;;;;;;;;4946548;28;20038;-58
2021/10/16 06:32:21;;;;;;;27.50;5.65;;;;;;;;;;4944623;28;20202;-58
2021/10/16 06:34:46;;;;;;;66.85;5.65;;;;;;;;;;4947210;28;20027;-58
2021/10/16 06:37:11;;;;;;;43.85;4.95;;;;;;;;;;4944879;28;20051;-58
2021/10/16 06:39:37;;;;;;;21.50;4.90;;;;;;;;;;4948195;28;20023;-58
2021/10/16 06:42:02;;;;;;;37.90;5.25;;;;;;;;;;4943988;28;20544;-58
2021/10/16 06:44:27;;;;;;;43.50;6.03;;;;;;;;;;4948702;28;20031;-58
2021/10/16 06:46:53;;;;;;;46.95;5.15;;;;;;;;;;4947724;28;20452;-58
2021/10/16 06:49:18;;;;;;;38.67;5.45;;;;;;;;;;4943224;28;20389;-58
2021/10/16 06:51:43;;;;;;;39.78;4.82;;;;;;;;;;4941228;28;20043;-58
2021/10/16 06:54:10;;;;;;;33.58;4.38;;;;;;;;;;4945542;28;20178;-58
2021/10/16 06:56:35;;;;;;;58.25;4.97;;;;;;;;;;4943641;28;20050;-57
2021/10/16 06:59:00;;;;;;;49.13;5.20;;;;;;;;;;4948808;28;20027;-58
2021/10/16 07:01:26;;;;;;;46.15;4.40;;;;;;;;;;4942013;28;20031;-57
2021/10/16 07:03:51;;;;;;;26.17;4.55;;;;;;;;;;4939816;28;20035;-57
2021/10/16 07:06:16;;;;;;;49.88;5.20;;;;;;;;;;4938696;28;20043;-58
2021/10/16 07:08:41;;;;;;;49.28;5.25;;;;;;;;;;4937377;28;20143;-58
2021/10/16 07:11:07;;;;;;;34.38;5.82;;;;;;;;;;4942021;28;20453;-58
2021/10/16 07:13:32;;;;;;;28.55;5.45;;;;;;;;;;4943448;28;20047;-58
2021/10/16 07:15:57;;;;;;;26.98;5.50;;;;;;;;;;4947215;28;20066;-57
2021/10/16 07:18:24;;;;;;;25.38;5.32;;;;;;;;;;4941605;28;20043;-58
2021/10/16 07:20:49;;;;;;;21.40;5.60;;;;;;;;;;4942267;28;20066;-58
2021/10/16 07:23:16;;;;;;;24.65;6.18;;;;;;;;;;4946745;28;20503;-57
2021/10/16 07:25:41;;;;;;;28.35;5.45;;;;;;;;;;4945181;28;20039;-57
2021/10/16 07:28:06;;;;;;;33.05;5.35;;;;;;;;;;4947622;28;20030;-57
2021/10/16 07:30:32;;;;;;;25.27;5.75;;;;;;;;;;4948944;28;20046;-57
2021/10/16 07:32:57;;;;;;;17.50;5.75;;;;;;;;;;4945199;29;20023;-58
2021/10/16 07:35:22;;;;;;;23.33;6.40;;;;;;;;;;4946253;28;20354;-57
2021/10/16 07:37:48;;;;;;;31.20;6.75;;;;;;;;;;4947472;28;20046;-58
2021/10/16 07:40:13;;;;;;;29.70;9.05;;;;;;;;;;4947397;28;20037;-57
2021/10/16 07:42:38;;;;;;;29.05;11.30;;;;;;;;;;4935546;28;20023;-57
2021/10/16 07:45:03;;;;;;;25.23;10.43;;;;;;;;;;4942275;28;20162;-58
2021/10/16 07:47:29;;;;;;;68.60;19.30;;;;;;;;;;4942047;29;20058;-58
2021/10/16 07:49:54;;;;;;;40.42;17.90;;;;;;;;;;4935127;29;20535;-58
2021/10/16 07:52:20;;;;;;;57.22;18.52;;;;;;;;;;4946806;28;20150;-57
2021/10/16 07:54:45;;;;;;;29.20;11.10;;;;;;;;;;4945817;28;20024;-57
2021/10/16 07:57:10;;;;;;;46.40;5.78;;;;;;;;;;4942880;28;20059;-57
2021/10/16 07:59:35;;;;;;;35.78;8.43;;;;;;;;;;4945710;28;20034;-60
2021/10/16 08:02:01;;;;;;;21.15;6.72;;;;;;;;;;4941307;28;20450;-61
2021/10/16 08:04:26;;;;;;;54.15;9.50;;;;;;;;;;4943691;29;20027;-59
2021/10/16 08:06:53;;;;;;;30.02;10.00;;;;;;;;;;4936336;28;20135;-60
2021/10/16 08:09:19;;;;;;;35.67;11.23;;;;;;;;;;4945497;28;20039;-59
2021/10/16 08:11:44;;;;;;;133.10;14.07;;;;;;;;;;4941580;28;20031;-61
2021/10/16 08:14:09;;;;;;;48.53;9.63;;;;;;;;;;4939142;28;20059;-61
2021/10/16 08:16:34;;;;;;;34.78;8.93;;;;;;;;;;4942949;28;20054;-61
2021/10/16 08:18:59;;;;;;;133.35;9.43;;;;;;;;;;4942385;29;20036;-61
2021/10/16 08:21:25;;;;;;;52.28;8.30;;;;;;;;;;4945419;28;20101;-61
2021/10/16 08:23:50;;;;;;;48.85;7.75;;;;;;;;;;4941549;28;20046;-61
2021/10/16 08:26:16;;;;;;;25.27;8.43;;;;;;;;;;4947513;28;20661;-61
2021/10/16 08:28:41;;;;;;;43.33;13.15;;;;;;;;;;4935412;28;20106;-61
2021/10/16 08:31:06;;;;;;;49.25;11.50;;;;;;;;;;4943572;28;20042;-59
2021/10/16 08:33:34;;;;;;;28.02;8.25;;;;;;;;;;4940122;28;20042;-59
2021/10/16 08:36:00;;;;;;;62.70;9.60;;;;;;;;;;4943178;28;20043;-59
2021/10/16 08:38:25;;;;;;;22.40;9.10;;;;;;;;;;4943731;29;20034;-62
2021/10/16 08:40:51;;;;;;;28.35;12.75;;;;;;;;;;4945580;28;20039;-59
2021/10/16 08:43:16;;;;;;;23.35;11.77;;;;;;;;;;4946634;28;20418;-59
2021/10/16 08:45:41;;;;;;;40.97;13.27;;;;;;;;;;4944988;28;20453;-61
2021/10/16 08:48:07;;;;;;;28.67;12.13;;;;;;;;;;4941121;28;20416;-61
2021/10/16 08:50:32;;;;;;;25.17;12.55;;;;;;;;;;4938956;28;20039;-61
2021/10/16 08:52:57;;;;;;;38.35;10.85;;;;;;;;;;4944532;29;20039;-61
2021/10/16 08:55:23;;;;;;;23.33;10.52;;;;;;;;;;4945815;28;20054;-61
2021/10/16 08:57:50;;;;;;;37.33;13.40;;;;;;;;;;4935260;28;20063;-60
2021/10/16 09:00:34;;;;;;;35.30;14.40;;;;;;;;;;4940221;28;20370;-60
2021/10/16 09:02:59;;;;;;;34.75;13.00;;;;;;;;;;4934730;28;20043;-61
2021/10/16 09:05:24;;;;;;;36.97;15.02;;;;;;;;;;4944450;28;20047;-61
2021/10/16 09:07:49;;;;;;;26.58;12.27;;;;;;;;;;4946593;28;20059;-61
2021/10/16 09:10:21;;;;;;;19.05;10.48;;;;;;;;;;4944165;28;20031;-61
2021/10/16 09:12:46;;;;;;;33.30;13.18;;;;;;;;;;4942803;28;20473;-61
2021/10/16 09:15:22;;;;;;;25.65;11.02;;;;;;;;;;4943947;28;20051;-59
2021/10/16 09:18:00;;;;;;;29.10;13.05;;;;;;;;;;4940868;29;20045;-59
2021/10/16 09:20:32;;;;;;;65.15;31.60;;;;;;;;;;4939153;28;20043;-61
2021/10/16 09:23:08;;;;;;;51.67;13.73;;;;;;;;;;4941110;28;20036;-61
2021/10/16 09:25:33;;;;;;;36.50;11.68;;;;;;;;;;4930043;29;20048;-60
2021/10/16 09:28:18;;;;;;;28.25;12.60;;;;;;;;;;4943973;28;20031;-61
2021/10/16 09:30:46;;;;;;;37.95;15.70;;;;;;;;;;4939049;28;20047;-61
2021/10/16 09:33:11;;;;;;;41.60;21.25;;;;;;;;;;4960301;28;20138;-59
2021/10/16 09:35:37;;;;;;;30.67;11.70;;;;;;;;;;4946599;28;20118;-59
2021/10/16 09:38:02;;;;;;;32.65;16.80;;;;;;;;;;4944782;28;20301;-60
2021/10/16 09:40:37;;;;;;;37.15;12.32;;;;;;;;;;4949280;28;20046;-59
2021/10/16 09:43:18;;;;;;;25.90;13.73;;;;;;;;;;4945080;28;20091;-60
2021/10/16 09:45:44;;;;;;;25.67;12.95;;;;;;;;;;4945516;28;20127;-59
2021/10/16 09:48:10;;;;;;;32.55;16.45;;;;;;;;;;4940800;28;20139;-60
2021/10/16 09:50:36;;;;;;;28.15;13.63;;;;;;;;;;4945116;28;20090;-60
2021/10/16 09:53:01;;;;;;;28.98;13.75;;;;;;;;;;4946089;28;20027;-60
2021/10/16 09:55:28;;;;;;;24.20;12.02;;;;;;;;;;4944388;28;20062;-60
2021/10/16 09:57:53;;;;;;;27.13;12.95;;;;;;;;;;4946717;28;20035;-61
2021/10/16 10:00:18;;;;;;;37.13;13.57;;;;;;;;;;4942185;28;20030;-60
2021/10/16 10:02:45;;;;;;;27.25;12.85;;;;;;;;;;4944271;28;20023;-60
2021/10/16 10:05:10;;;;;;;29.17;12.20;;;;;;;;;;4943683;28;20037;-60
2021/10/16 10:07:35;;;;;;;28.40;12.60;;;;;;;;;;4948089;29;20016;-59
2021/10/16 10:10:01;;;;;;;31.02;13.20;;;;;;;;;;4941206;28;20032;-60
2021/10/16 10:12:26;;;;;;;27.52;11.50;;;;;;;;;;4957190;28;20055;-60
2021/10/16 10:14:52;;;;;;;21.63;11.45;;;;;;;;;;4944757;28;20042;-60
2021/10/16 10:17:30;;;;;;;31.13;12.15;;;;;;;;;;4946939;28;20059;-61
2021/10/16 10:19:57;;;;;;;31.02;12.40;;;;;;;;;;4944253;28;20110;-60
2021/10/16 10:22:22;;;;;;;23.17;13.27;;;;;;;;;;4940663;29;20050;-60
2021/10/16 10:24:48;;;;;;;32.22;13.00;;;;;;;;;;4938860;29;20024;-60
2021/10/16 10:27:14;;;;;;;30.48;13.05;;;;;;;;;;4948857;28;20053;-60
2021/10/16 10:29:40;;;;;;;32.45;15.02;;;;;;;;;;4948521;28;20066;-60
2021/10/16 10:32:07;;;;;;;31.42;14.40;;;;;;;;;;4944811;28;20039;-60
2021/10/16 10:34:34;;;;;;;32.83;13.25;;;;;;;;;;4950566;28;20375;-60
2021/10/16 10:37:06;;;;;;;36.38;12.70;;;;;;;;;;4939729;28;20514;-60
2021/10/16 10:39:35;;;;;;;21.42;11.45;;;;;;;;;;4940317;28;20046;-60
2021/10/16 10:42:01;;;;;;;25.90;13.55;;;;;;;;;;4945054;28;20043;-60
2021/10/16 10:44:45;;;;;;;23.35;13.88;;;;;;;;;;4944646;28;20030;-61
2021/10/16 10:47:25;;;;;;;26.00;13.43;;;;;;;;;;4945576;28;20043;-61
2021/10/16 10:49:54;;;;;;;42.08;16.50;;;;;;;;;;4944980;28;20050;-61
2021/10/16 10:52:21;;;;;;;43.45;18.92;;;;;;;;;;4949651;28;20407;-63
2021/10/16 10:54:59;;;;;;;25.48;13.02;;;;;;;;;;4948642;28;20024;-61
2021/10/16 10:57:43;;;;;;;24.17;12.93;;;;;;;;;;4942463;28;20051;-60
2021/10/16 11:00:10;;;;;;;21.00;13.10;;;;;;;;;;4947926;28;20027;-60
2021/10/16 11:02:36;;;;;;;21.45;12.38;;;;;;;;;;4941286;28;20098;-60
2021/10/16 11:05:03;;;;;;;25.42;13.85;;;;;;;;;;4945760;28;20027;-61
2021/10/16 11:07:29;;;;;;;24.10;13.25;;;;;;;;;;4948328;28;20062;-60
2021/10/16 11:09:55;;;;;;;25.70;14.00;;;;;;;;;;4947743;28;20057;-60
2021/10/16 11:12:23;;;;;;;33.33;16.73;;;;;;;;;;4944917;28;20083;-60
2021/10/16 11:14:48;;;;;;;41.55;15.75;;;;;;;;;;4945410;29;20031;-60
2021/10/16 11:17:14;;;;;;;33.30;16.40;;;;;;;;;;4946655;28;20039;-60
2021/10/16 11:19:46;;;;;;;37.55;17.50;;;;;;;;;;4938589;28;20725;-60
2021/10/16 11:22:11;;;;;;;32.70;18.17;;;;;;;;;;4944719;28;20051;-60
2021/10/16 11:24:36;;;;;;;40.47;18.20;;;;;;;;;;4944113;29;20085;-60
2021/10/16 11:27:02;;;;;;;33.10;16.77;;;;;;;;;;4940266;28;20134;-60
2021/10/16 11:29:36;;;;;;;36.42;19.05;;;;;;;;;;4945681;28;20106;-60
2021/10/16 11:32:14;;;;;;;35.67;16.85;;;;;;;;;;4942786;28;20166;-61
2021/10/16 11:34:40;;;;;;;33.83;16.20;;;;;;;;;;4946242;28;20573;-61
2021/10/16 11:37:05;;;;;;;32.58;16.65;;;;;;;;;;4943231;28;20082;-61
2021/10/16 11:39:31;;;;;;;36.25;17.27;;;;;;;;;;4944955;28;20490;-61
2021/10/16 11:41:56;;;;;;;36.08;18.50;;;;;;;;;;4947489;28;20040;-61
2021/10/16 11:44:21;;;;;;;52.25;26.13;;;;;;;;;;4944986;29;20056;-61
2021/10/16 11:46:59;;;;;;;70.38;33.40;;;;;;;;;;4947376;28;20032;-61
2021/10/16 11:49:27;;;;;;;50.45;26.80;;;;;;;;;;4947256;28;20038;-60
2021/10/16 11:51:52;;;;;;;38.20;18.90;;;;;;;;;;4940880;28;20043;-60
2021/10/16 11:54:17;;;;;;;45.25;22.88;;;;;;;;;;4942052;28;20023;-60
2021/10/16 11:56:42;;;;;;;39.90;20.30;;;;;;;;;;4947055;28;20057;-61
2021/10/16 11:59:08;;;;;;;45.22;21.77;;;;;;;;;;4947627;28;20410;-61
2021/10/16 12:01:42;;;;;;;42.20;21.30;;;;;;;;;;4945712;28;20031;-61
2021/10/16 12:04:07;;;;;;;42.60;21.83;;;;;;;;;;4938132;28;20101;-60
2021/10/16 12:06:33;;;;;;;42.28;21.38;;;;;;;;;;4945560;28;20371;-61
2021/10/16 12:09:02;;;;;;;41.70;20.20;;;;;;;;;;4940560;28;20020;-61
2021/10/16 12:11:30;;;;;;;41.85;21.17;;;;;;;;;;4944268;28;20505;-61
2021/10/16 12:13:56;;;;;;;33.40;18.02;;;;;;;;;;4947167;28;20047;-61
2021/10/16 12:16:22;;;;;;;41.30;19.85;;;;;;;;;;4939478;28;20704;-60
2021/10/16 12:18:54;;;;;;;39.42;21.15;;;;;;;;;;4945931;28;20070;-61
2021/10/16 12:21:35;;;;;;;42.20;21.15;;;;;;;;;;4931255;28;20031;-60
2021/10/16 12:24:11;;;;;;;45.83;21.75;;;;;;;;;;4944742;28;20035;-61
2021/10/16 12:26:37;;;;;;;47.70;22.60;;;;;;;;;;4946485;28;20043;-60
2021/10/16 12:29:05;;;;;;;47.90;22.83;;;;;;;;;;4934734;28;20026;-61
2021/10/16 12:31:44;;;;;;;39.55;21.48;;;;;;;;;;4942739;28;20055;-61
2021/10/16 12:34:18;;;;;;;40.75;21.70;;;;;;;;;;4940775;29;20111;-61
2021/10/16 12:37:03;;;;;;;42.42;22.50;;;;;;;;;;4946437;28;20051;-61
2021/10/16 12:39:34;;;;;;;43.67;20.77;;;;;;;;;;4942569;28;20280;-61
2021/10/16 12:42:13;;;;;;;44.00;22.40;;;;;;;;;;4937017;28;20121;-61
2021/10/16 12:44:39;;;;;;;47.38;21.92;;;;;;;;;;4941487;29;20052;-61
2021/10/16 12:47:07;;;;;;;49.10;22.80;;;;;;;;;;4939218;28;20549;-61
2021/10/16 12:49:36;;;;;;;47.38;25.98;;;;;;;;;;4942447;28;20071;-61
2021/10/16 12:52:03;;;;;;;50.00;25.70;;;;;;;;;;4946618;28;20147;-60
2021/10/16 12:54:29;;;;;;;57.70;24.95;;;;;;;;;;4945843;29;20639;-61
2021/10/16 12:57:01;;;;;;;50.50;26.67;;;;;;;;;;4944664;28;20053;-60
2021/10/16 12:59:26;;;;;;;62.50;27.65;;;;;;;;;;4932987;29;20024;-62
2021/10/16 13:01:51;;;;;;;56.35;27.83;;;;;;;;;;4940621;28;20118;-60
2021/10/16 13:04:16;;;;;;;58.55;27.73;;;;;;;;;;4939389;29;20026;-61
2021/10/16 13:06:42;;;;;;;51.08;25.88;;;;;;;;;;4941756;28;20043;-60
2021/10/16 13:09:07;;;;;;;53.28;24.73;;;;;;;;;;4946411;28;20458;-61
2021/10/16 13:11:32;;;;;;;53.90;24.83;;;;;;;;;;4945289;28;20031;-60
2021/10/16 13:13:58;;;;;;;54.63;26.17;;;;;;;;;;4946511;28;20505;-61
2021/10/16 13:16:24;;;;;;;56.30;27.27;;;;;;;;;;4946401;28;20089;-61
2021/10/16 13:18:49;;;;;;;48.80;25.63;;;;;;;;;;4942007;28;20594;-61
2021/10/16 13:21:14;;;;;;;50.60;25.33;;;;;;;;;;4922074;29;20847;-60
2021/10/16 13:23:40;;;;;;;49.63;25.88;;;;;;;;;;4934205;29;20115;-61
2021/10/16 13:26:05;;;;;;;53.85;27.08;;;;;;;;;;4939037;28;20035;-60
2021/10/16 13:28:30;;;;;;;49.13;26.35;;;;;;;;;;4938358;28;20248;-61
2021/10/16 13:30:56;;;;;;;45.65;23.23;;;;;;;;;;4942014;28;20359;-60
2021/10/16 13:33:22;;;;;;;48.45;24.73;;;;;;;;;;4941398;28;20023;-60
2021/10/16 13:35:47;;;;;;;55.03;26.42;;;;;;;;;;4941142;28;20039;-62
2021/10/16 13:38:13;;;;;;;49.60;24.77;;;;;;;;;;4937552;28;20077;-60
2021/10/16 13:40:38;;;;;;;53.72;25.75;;;;;;;;;;4950750;28;20111;-60
2021/10/16 13:43:04;;;;;;;53.28;24.63;;;;;;;;;;4943606;28;20486;-62
2021/10/16 13:45:29;;;;;;;48.92;25.73;;;;;;;;;;4943594;28;20685;-60
2021/10/16 13:47:54;;;;;;;45.85;23.75;;;;;;;;;;4935134;28;20023;-60
2021/10/16 13:50:20;;;;;;;47.67;25.38;;;;;;;;;;4949606;28;20044;-60
2021/10/16 13:52:45;;;;;;;50.17;25.08;;;;;;;;;;4942867;28;20027;-59
2021/10/16 13:55:10;;;;;;;51.17;24.00;;;;;;;;;;4945623;28;20023;-61
2021/10/16 13:57:35;;;;;;;50.75;24.35;;;;;;;;;;4941889;29;20551;-59
2021/10/16 14:00:02;;;;;;;50.22;24.50;;;;;;;;;;4945392;28;20114;-62
2021/10/16 14:02:27;;;;;;;52.15;24.67;;;;;;;;;;4954665;28;20049;-59
2021/10/16 14:04:52;;;;;;;47.60;24.65;;;;;;;;;;4945474;28;20059;-59
2021/10/16 14:07:18;;;;;;;42.05;22.27;;;;;;;;;;4939829;28;20066;-59
2021/10/16 14:09:43;;;;;;;49.60;22.25;;;;;;;;;;4938869;29;20314;-59
2021/10/16 14:12:08;;;;;;;45.03;21.00;;;;;;;;;;4931440;28;20578;-59
2021/10/16 14:14:33;;;;;;;45.83;19.73;;;;;;;;;;4936052;28;20028;-60
2021/10/16 14:16:59;;;;;;;49.70;21.13;;;;;;;;;;4941326;28;20541;-60